Time;durP1;ratioP1;P1;durP2;ratioP2;P2;SDS_P1;SDS_P2;PMS_P1;PMS_P2;Temp;Humidity;BMP_temperature;BMP_pressure;BME280_temperature;BME280_humidity;BME280_pressure;Samples;Min_cycle;Max_cycle;Signal;HPM_P1;HPM_P2
2021/06/20 00:00:19;;;;;;;8.13;3.78;;;;;;;23.73;58.23;99994.38;5135380;27;20043;-75
2021/06/20 00:02:48;;;;;;;6.57;4.20;;;;;;;23.58;58.86;99994.31;5134825;27;20066;-77
2021/06/20 00:05:18;;;;;;;6.30;4.10;;;;;;;23.57;58.59;99998.91;5134900;27;20074;-77
2021/06/20 00:07:50;;;;;;;7.30;4.20;;;;;;;23.64;58.35;99999.03;5135252;27;20402;-77
2021/06/20 00:10:23;;;;;;;6.65;4.15;;;;;;;23.51;58.85;100004.22;5134808;27;20096;-77
2021/06/20 00:12:53;;;;;;;7.03;4.00;;;;;;;23.45;58.73;100005.81;5135149;27;20389;-77
2021/06/20 00:15:23;;;;;;;6.25;4.25;;;;;;;23.52;58.73;100003.19;5134756;27;20460;-77
2021/06/20 00:17:52;;;;;;;8.65;4.60;;;;;;;23.38;59.48;100005.69;5133837;27;20039;-77
2021/06/20 00:20:23;;;;;;;7.40;3.72;;;;;;;23.37;59.07;100004.00;5134619;27;20047;-77
2021/06/20 00:22:53;;;;;;;5.45;3.60;;;;;;;23.29;59.11;100006.78;5135011;27;20093;-76
2021/06/20 00:25:23;;;;;;;7.80;4.00;;;;;;;23.20;59.31;99996.97;5134537;27;20051;-75
2021/06/20 00:27:53;;;;;;;6.07;3.72;;;;;;;23.20;59.13;100007.84;5134816;27;20086;-74
2021/06/20 00:30:24;;;;;;;5.90;4.13;;;;;;;23.17;59.12;100005.50;5133055;27;20541;-77
2021/06/20 00:32:53;;;;;;;6.40;4.03;;;;;;;22.99;58.77;100005.78;5134603;27;20042;-74
2021/06/20 00:35:22;;;;;;;6.63;4.30;;;;;;;23.02;59.13;99999.13;5134606;27;20112;-74
2021/06/20 00:37:52;;;;;;;6.50;4.15;;;;;;;23.04;58.61;100002.50;5134551;27;20043;-77
2021/06/20 00:40:21;;;;;;;5.93;3.75;;;;;;;23.07;58.22;100007.59;5134429;27;20039;-77
2021/06/20 00:42:50;;;;;;;7.03;3.95;;;;;;;23.19;57.99;99994.44;5134390;27;20484;-78
2021/06/20 00:45:21;;;;;;;6.68;3.58;;;;;;;22.94;58.20;100001.88;5134582;27;20070;-77
2021/06/20 00:47:53;;;;;;;6.40;3.90;;;;;;;22.91;58.60;99999.53;5134417;27;20070;-77
2021/06/20 00:50:24;;;;;;;5.70;4.07;;;;;;;22.99;57.87;99984.00;5134348;27;20050;-76
2021/06/20 00:52:55;;;;;;;6.13;4.03;;;;;;;22.94;58.13;99994.56;5134384;27;20488;-77
2021/06/20 00:55:28;;;;;;;4.82;3.35;;;;;;;22.88;58.44;99999.88;5134247;27;20555;-77
2021/06/20 00:57:56;;;;;;;8.00;3.97;;;;;;;22.80;58.96;99996.13;5134338;27;20502;-79
2021/06/20 01:00:24;;;;;;;7.30;3.85;;;;;;;22.94;58.16;99999.16;5134058;27;20476;-80
2021/06/20 01:02:53;;;;;;;5.70;3.70;;;;;;;22.89;58.33;99998.84;5133272;27;20134;-78
2021/06/20 01:05:23;;;;;;;5.55;3.72;;;;;;;23.04;57.11;100002.50;5134176;27;20067;-78
2021/06/20 01:07:54;;;;;;;5.88;3.70;;;;;;;22.82;58.02;99999.53;5133891;27;20126;-77
2021/06/20 01:10:24;;;;;;;7.57;3.70;;;;;;;22.64;59.02;99996.22;5133646;28;20046;-76
2021/06/20 01:12:52;;;;;;;6.38;3.75;;;;;;;22.67;58.85;99995.84;5133960;28;20410;-77
2021/06/20 01:15:21;;;;;;;6.50;3.70;;;;;;;22.77;58.08;100004.63;5134319;28;20039;-78
2021/06/20 01:17:51;;;;;;;5.70;3.30;;;;;;;22.74;57.72;100001.44;5134270;28;20069;-75
2021/06/20 01:20:21;;;;;;;6.50;4.03;;;;;;;22.84;57.74;99997.50;5132618;28;20055;-76
2021/06/20 01:22:53;;;;;;;8.40;3.38;;;;;;;22.92;57.03;99998.50;5134042;28;20437;-74
2021/06/20 01:25:23;;;;;;;6.90;3.75;;;;;;;22.79;57.75;99988.16;5134060;28;20573;-75
2021/06/20 01:27:57;;;;;;;4.70;3.60;;;;;;;22.67;58.27;99978.69;5134068;28;20388;-74
2021/06/20 01:30:27;;;;;;;6.10;3.92;;;;;;;22.65;58.48;99978.03;5136516;27;20043;-74
2021/06/20 01:32:57;;;;;;;5.45;3.75;;;;;;;22.63;58.52;99970.06;5138093;27;20066;-74
2021/06/20 01:35:26;;;;;;;4.82;3.25;;;;;;;22.70;58.07;99972.91;5137609;27;20498;-76
2021/06/20 01:37:57;;;;;;;6.35;3.53;;;;;;;22.60;58.30;99964.97;5137772;27;20579;-72
2021/06/20 01:40:26;;;;;;;6.75;3.80;;;;;;;22.52;58.40;99962.28;5137769;27;20043;-74
2021/06/20 01:42:55;;;;;;;5.05;3.40;;;;;;;22.50;58.54;99961.63;5137972;27;20391;-74
2021/06/20 01:45:24;;;;;;;7.57;4.25;;;;;;;22.56;58.26;99958.19;5137924;27;20039;-74
2021/06/20 01:47:55;;;;;;;5.93;3.88;;;;;;;22.65;58.09;99961.72;5137720;27;20438;-73
2021/06/20 01:50:26;;;;;;;;;;;;;;;22.48;58.64;99958.22;5137990;27;20340;-75
2021/06/20 01:53:07;;;;;;;8.00;4.07;;;;;;;22.54;58.04;99957.50;5137420;27;19919;-73
2021/06/20 01:55:36;;;;;;;5.88;3.72;;;;;;;22.40;58.63;99960.97;5137626;27;20055;-73
2021/06/20 01:58:06;;;;;;;4.90;3.70;;;;;;;22.48;58.86;99958.22;5137401;27;20104;-73
2021/06/20 02:00:36;;;;;;;5.93;3.47;;;;;;;22.56;58.20;99950.03;5136979;27;20047;-74
2021/06/20 02:03:08;;;;;;;7.82;3.85;;;;;;;22.51;58.44;99957.88;5137184;27;20138;-74
2021/06/20 02:05:37;;;;;;;6.10;3.65;;;;;;;22.23;59.63;99947.44;5136992;27;20373;-73
2021/06/20 02:08:08;;;;;;;6.72;3.90;;;;;;;22.14;59.97;99945.78;5137420;27;20051;-72
2021/06/20 02:10:36;;;;;;;6.45;4.13;;;;;;;22.22;59.48;99937.59;5137209;27;20039;-72
2021/06/20 02:13:05;;;;;;;5.88;3.83;;;;;;;22.21;59.81;99937.78;5137108;27;20043;-76
2021/06/20 02:15:34;;;;;;;7.85;3.78;;;;;;;22.19;59.93;99937.94;5137041;27;20487;-76
2021/06/20 02:18:02;;;;;;;5.82;3.47;;;;;;;21.95;60.67;99946.97;5139765;27;20047;-75
2021/06/20 02:20:31;;;;;;;6.80;4.05;;;;;;;21.99;61.04;99944.75;5136136;27;20518;-76
2021/06/20 02:23:00;;;;;;;6.15;3.78;;;;;;;22.19;59.78;99947.94;5137466;27;20396;-76
2021/06/20 02:25:29;;;;;;;5.80;3.58;;;;;;;22.01;60.77;99950.88;5136610;27;20064;-77
2021/06/20 02:27:58;;;;;;;4.82;3.80;;;;;;;21.90;61.72;99959.34;5137230;27;20078;-76
2021/06/20 02:30:26;;;;;;;6.65;4.20;;;;;;;21.83;61.84;99958.38;5137208;27;20039;-74
2021/06/20 02:32:55;;;;;;;5.07;3.80;;;;;;;22.02;60.85;99962.59;5136871;27;20050;-77
2021/06/20 02:35:25;;;;;;;4.95;3.88;;;;;;;22.05;60.57;99959.50;5137066;27;20154;-78
2021/06/20 02:37:54;;;;;;;6.82;4.30;;;;;;;22.20;60.17;99955.94;5136618;27;20070;-78
2021/06/20 02:40:23;;;;;;;7.32;3.83;;;;;;;22.20;60.39;99961.38;5136642;27;20047;-79
2021/06/20 02:42:53;;;;;;;5.65;3.83;;;;;;;22.10;60.76;99954.44;5136060;27;20225;-78
2021/06/20 02:45:23;;;;;;;5.80;3.88;;;;;;;21.96;61.92;99956.81;5136911;27;20070;-79
2021/06/20 02:47:53;;;;;;;6.47;4.40;;;;;;;21.93;61.63;99950.88;5136551;27;20103;-79
2021/06/20 02:50:21;;;;;;;5.53;4.05;;;;;;;22.03;61.37;99946.13;5136488;27;20100;-79
2021/06/20 02:52:50;;;;;;;5.40;3.72;;;;;;;22.03;61.17;99932.53;5136146;27;20040;-77
2021/06/20 02:55:18;;;;;;;7.45;4.07;;;;;;;21.99;61.47;99931.16;5135358;27;20488;-78
2021/06/20 02:57:47;;;;;;;5.75;3.95;;;;;;;21.94;62.09;99944.44;5136225;27;20044;-78
2021/06/20 03:00:17;;;;;;;6.32;4.10;;;;;;;21.86;62.46;99950.72;5136675;27;20043;-78
2021/06/20 03:02:49;;;;;;;6.13;4.18;;;;;;;21.84;62.54;99952.78;5136207;27;20039;-79
2021/06/20 03:05:17;;;;;;;5.35;4.10;;;;;;;22.11;61.29;99948.00;5135255;27;20043;-78
2021/06/20 03:07:46;;;;;;;6.53;3.97;;;;;;;22.18;61.09;99941.69;5136127;27;20070;-78
2021/06/20 03:10:15;;;;;;;6.10;4.15;;;;;;;22.35;60.57;99939.75;5136395;27;20472;-78
2021/06/20 03:12:43;;;;;;;6.85;4.32;;;;;;;22.32;61.30;99947.44;5135960;27;20118;-78
2021/06/20 03:15:12;;;;;;;7.60;4.18;;;;;;;22.31;61.48;99951.16;5136393;27;20039;-78
2021/06/20 03:17:43;;;;;;;9.13;4.60;;;;;;;22.38;60.78;99952.13;5135787;27;20070;-78
2021/06/20 03:20:13;;;;;;;5.82;4.00;;;;;;;22.51;60.61;99958.72;5136290;27;20066;-78
2021/06/20 03:22:41;;;;;;;5.65;4.30;;;;;;;22.42;61.39;99958.94;5135758;27;20039;-78
2021/06/20 03:25:12;;;;;;;8.05;4.45;;;;;;;22.55;61.03;99953.78;5134517;27;20050;-74
2021/06/20 03:27:41;;;;;;;7.55;4.60;;;;;;;22.51;60.92;99957.88;5135737;27;20515;-74
2021/06/20 03:30:10;;;;;;;7.90;4.85;;;;;;;22.51;61.78;99960.59;5135564;27;20039;-74
2021/06/20 03:32:39;;;;;;;6.25;4.47;;;;;;;22.64;61.35;99952.72;5135455;27;20138;-75
2021/06/20 03:35:11;;;;;;;7.20;4.70;;;;;;;22.88;60.92;99951.78;5135509;27;20408;-73
2021/06/20 03:37:39;;;;;;;9.18;5.50;;;;;;;23.84;57.84;99956.69;5135401;27;20087;-72
2021/06/20 03:40:08;;;;;;;8.05;5.47;;;;;;;24.84;54.87;99950.75;5135616;27;20047;-74
2021/06/20 03:42:37;;;;;;;7.65;5.15;;;;;;;25.44;53.27;99952.25;5135004;27;20039;-74
2021/06/20 03:45:08;;;;;;;8.60;4.95;;;;;;;25.86;51.79;99958.75;5135499;27;20054;-74
2021/06/20 03:47:36;;;;;;;8.40;5.22;;;;;;;25.90;51.98;99958.16;5135211;27;20134;-75
2021/06/20 03:50:08;;;;;;;8.35;5.13;;;;;;;25.85;52.33;99970.72;5135808;27;20159;-75
2021/06/20 03:52:39;;;;;;;9.63;5.15;;;;;;;26.28;51.46;99962.41;5135197;27;20043;-75
2021/06/20 03:55:09;;;;;;;8.57;5.38;;;;;;;26.40;51.23;99955.34;5134591;27;20074;-75
2021/06/20 03:57:38;;;;;;;8.68;5.18;;;;;;;26.72;50.47;99968.34;5134693;27;20051;-75
2021/06/20 04:00:09;;;;;;;10.38;5.47;;;;;;;27.57;47.98;99963.34;5134831;27;20051;-78
2021/06/20 04:02:38;;;;;;;7.90;5.15;;;;;;;27.79;47.48;99964.84;5134756;27;20035;-78
2021/06/20 04:05:08;;;;;;;8.25;5.40;;;;;;;27.63;47.67;99968.81;5135186;27;20051;-78
2021/06/20 04:07:37;;;;;;;7.32;5.07;;;;;;;27.72;47.23;99972.25;5134523;27;20035;-78
2021/06/20 04:10:06;;;;;;;7.82;5.07;;;;;;;28.42;45.28;99958.88;5133558;27;20423;-77
2021/06/20 04:12:36;;;;;;;6.88;4.50;;;;;;;28.82;43.82;99967.81;5134803;27;20043;-77
2021/06/20 04:15:06;;;;;;;7.78;4.38;;;;;;;28.43;44.67;99964.16;5135086;27;20036;-76
2021/06/20 04:17:35;;;;;;;7.97;4.68;;;;;;;29.03;43.68;99958.44;5134828;27;20078;-80
2021/06/20 04:20:06;;;;;;;6.93;4.10;;;;;;;29.60;41.04;99957.47;5134554;27;20043;-76
2021/06/20 04:22:38;;;;;;;8.70;3.95;;;;;;;29.75;40.95;99961.81;5134609;27;20062;-78
2021/06/20 04:25:08;;;;;;;5.28;3.88;;;;;;;29.73;39.96;99963.94;5134893;27;20051;-76
2021/06/20 04:27:36;;;;;;;6.45;4.13;;;;;;;29.72;40.42;99971.31;5134322;27;20039;-76
2021/06/20 04:30:10;;;;;;;6.30;3.60;;;;;;;29.79;40.56;99972.13;5134547;27;20054;-76
2021/06/20 04:32:39;;;;;;;5.72;4.07;;;;;;;29.80;39.56;99973.78;5134408;27;20043;-76
2021/06/20 04:35:13;;;;;;;5.93;4.00;;;;;;;30.11;39.72;99967.44;5134912;27;20043;-77
2021/06/20 04:37:44;;;;;;;6.38;3.90;;;;;;;30.73;38.15;99970.16;5134417;27;20053;-76
2021/06/20 04:40:16;;;;;;;6.28;3.75;;;;;;;31.36;36.67;99964.22;5134340;27;20035;-75
2021/06/20 04:42:47;;;;;;;6.70;3.90;;;;;;;31.34;36.58;99956.22;5133984;27;20043;-74
2021/06/20 04:45:15;;;;;;;7.70;3.72;;;;;;;31.06;37.68;99973.31;5134789;27;20095;-75
2021/06/20 04:47:44;;;;;;;7.47;3.88;;;;;;;32.12;34.89;99968.09;5134189;27;20039;-76
2021/06/20 04:50:13;;;;;;;7.32;3.58;;;;;;;31.59;36.02;99980.84;5134156;27;20553;-74
2021/06/20 04:52:43;;;;;;;6.68;3.60;;;;;;;31.72;35.86;99974.28;5134040;27;20043;-76
2021/06/20 04:55:13;;;;;;;6.15;4.28;;;;;;;31.93;35.67;99974.81;5134408;27;20118;-77
2021/06/20 04:57:43;;;;;;;7.57;3.83;;;;;;;31.48;36.25;99973.41;5134135;27;20104;-79
2021/06/20 05:00:12;;;;;;;5.82;3.50;;;;;;;31.46;36.58;99974.69;5134198;27;20564;-78
2021/06/20 05:02:41;;;;;;;6.07;3.50;;;;;;;31.15;36.85;99979.34;5133637;27;20068;-76
2021/06/20 05:05:11;;;;;;;6.22;3.60;;;;;;;31.45;36.38;99978.53;5133554;27;20043;-73
2021/06/20 05:07:39;;;;;;;7.13;4.20;;;;;;;32.06;35.28;99983.72;5133965;27;20035;-77
2021/06/20 05:10:10;;;;;;;7.32;3.78;;;;;;;32.23;35.03;99985.72;5134410;27;20055;-76
2021/06/20 05:12:38;;;;;;;5.63;3.20;;;;;;;31.63;36.02;99989.47;5133899;27;20064;-79
2021/06/20 05:15:08;;;;;;;5.97;3.60;;;;;;;32.37;34.83;100001.84;5134173;28;20047;-76
2021/06/20 05:17:36;;;;;;;6.55;3.72;;;;;;;32.26;34.75;99999.06;5132890;28;20130;-77
2021/06/20 05:20:06;;;;;;;5.35;3.53;;;;;;;32.25;34.81;100003.75;5134141;28;20049;-76
2021/06/20 05:22:34;;;;;;;4.70;3.30;;;;;;;31.97;35.33;100009.97;5134147;28;20436;-75
2021/06/20 05:25:03;;;;;;;6.22;3.50;;;;;;;31.81;35.63;100017.00;5133781;28;20388;-74
2021/06/20 05:27:33;;;;;;;6.32;3.78;;;;;;;31.69;35.93;100023.53;5133953;28;20039;-75
2021/06/20 05:30:01;;;;;;;7.47;3.70;;;;;;;32.36;34.93;100021.41;5133583;28;20039;-75
2021/06/20 05:32:30;;;;;;;6.13;3.65;;;;;;;31.82;35.63;100021.44;5133891;28;20120;-76
2021/06/20 05:34:59;;;;;;;4.80;3.45;;;;;;;32.58;34.71;100010.59;5133259;28;20054;-76
2021/06/20 05:37:27;;;;;;;8.55;3.50;;;;;;;32.87;33.77;100015.13;5133426;28;20095;-74
2021/06/20 05:39:55;;;;;;;5.55;3.80;;;;;;;32.80;34.03;100017.13;5133273;28;20080;-74
2021/06/20 05:42:23;;;;;;;5.72;3.45;;;;;;;33.69;32.05;100027.81;5134117;28;20039;-73
2021/06/20 05:44:54;;;;;;;7.60;3.83;;;;;;;33.76;32.28;100029.31;5133679;28;20070;-74
2021/06/20 05:47:22;;;;;;;6.10;3.60;;;;;;;33.22;33.06;100028.00;5134482;28;20074;-73
2021/06/20 05:49:50;;;;;;;5.32;3.70;;;;;;;33.28;32.99;100029.75;5133543;28;20120;-74
2021/06/20 05:52:18;;;;;;;6.50;3.80;;;;;;;33.33;33.12;100029.88;5133461;28;20122;-75
2021/06/20 05:54:50;;;;;;;6.18;3.40;;;;;;;33.08;33.70;100038.47;5133252;28;20042;-76
2021/06/20 05:57:20;;;;;;;4.88;3.28;;;;;;;31.81;35.34;100038.22;5133838;28;20051;-75
2021/06/20 05:59:49;;;;;;;5.78;3.53;;;;;;;31.52;36.28;100040.75;5133302;27;20049;-76
2021/06/20 06:02:21;;;;;;;6.33;3.70;;;;;;;31.84;35.74;100037.75;5133774;28;20039;-75
2021/06/20 06:04:49;;;;;;;6.97;3.90;;;;;;;32.06;35.30;100041.63;5133387;28;20275;-76
2021/06/20 06:07:17;;;;;;;7.03;3.65;;;;;;;33.43;33.12;100032.88;5133844;28;20039;-76
2021/06/20 06:09:48;;;;;;;5.80;3.33;;;;;;;33.68;33.71;100035.25;5133143;28;20043;-72
2021/06/20 06:12:19;;;;;;;6.47;3.60;;;;;;;33.87;32.81;100027.56;5133622;28;20039;-72
2021/06/20 06:14:47;;;;;;;6.65;3.50;;;;;;;33.75;32.27;100026.81;5133341;27;20050;-72
2021/06/20 06:17:15;;;;;;;5.63;3.53;;;;;;;33.84;32.57;100026.13;5135879;27;20039;-72
2021/06/20 06:19:45;;;;;;;5.40;3.47;;;;;;;33.97;32.61;100025.03;5136779;27;20076;-74
2021/06/20 06:22:13;;;;;;;4.88;3.70;;;;;;;33.59;33.00;100034.84;5137233;27;20043;-71
2021/06/20 06:24:41;;;;;;;6.55;3.78;;;;;;;33.80;32.37;100029.66;5137176;27;20043;-71
2021/06/20 06:27:12;;;;;;;5.07;3.50;;;;;;;33.32;33.02;100033.72;5136910;27;20067;-72
2021/06/20 06:29:40;;;;;;;7.72;3.20;;;;;;;33.69;32.59;100028.66;5137046;27;20039;-71
2021/06/20 06:32:10;;;;;;;6.43;3.38;;;;;;;34.07;31.72;100014.13;5136851;27;20096;-71
2021/06/20 06:34:39;;;;;;;4.85;3.50;;;;;;;33.95;32.65;100024.41;5136938;27;20041;-70
2021/06/20 06:37:09;;;;;;;8.57;3.72;;;;;;;33.94;33.39;100022.75;5136575;27;20051;-70
2021/06/20 06:39:37;;;;;;;6.15;3.78;;;;;;;34.24;31.84;100027.09;5136743;27;20043;-70
2021/06/20 06:42:07;;;;;;;6.63;3.50;;;;;;;35.05;30.37;100014.44;5136230;27;20496;-71
2021/06/20 06:44:36;;;;;;;5.60;3.35;;;;;;;35.21;31.75;100012.69;5136719;27;20050;-70
2021/06/20 06:47:05;;;;;;;5.88;3.40;;;;;;;34.78;30.80;100007.97;5136384;27;20046;-71
2021/06/20 06:49:34;;;;;;;6.28;3.33;;;;;;;34.83;30.98;100010.78;5136557;27;20070;-71
2021/06/20 06:52:02;;;;;;;5.15;3.47;;;;;;;34.43;31.78;100003.59;5136279;27;20391;-71
2021/06/20 06:54:32;;;;;;;6.07;3.40;;;;;;;35.23;30.04;100016.06;5136813;27;20070;-70
2021/06/20 06:57:00;;;;;;;6.15;3.40;;;;;;;34.22;31.22;100015.44;5135607;27;20102;-70
2021/06/20 06:59:28;;;;;;;5.30;3.30;;;;;;;33.58;33.20;100018.47;5136570;27;20474;-70
2021/06/20 07:01:57;;;;;;;4.80;3.10;;;;;;;33.57;32.39;100011.28;5136217;27;20070;-69
2021/06/20 07:04:25;;;;;;;5.32;3.60;;;;;;;32.64;34.77;100015.16;5136538;27;20040;-70
2021/06/20 07:06:53;;;;;;;9.02;3.70;;;;;;;32.46;35.37;100008.69;5134674;27;20054;-70
2021/06/20 07:09:21;;;;;;;6.40;3.70;;;;;;;32.93;34.25;100005.03;5136291;27;20043;-70
2021/06/20 07:11:51;;;;;;;5.80;3.38;;;;;;;32.98;33.10;99994.91;5135936;27;20050;-70
2021/06/20 07:14:19;;;;;;;4.78;3.30;;;;;;;32.54;34.36;100003.88;5136036;27;20032;-70
2021/06/20 07:16:48;;;;;;;5.95;3.70;;;;;;;32.00;34.93;99998.44;5135830;27;20533;-73
2021/06/20 07:19:16;;;;;;;6.43;3.13;;;;;;;32.23;35.35;99994.84;5136016;27;20043;-70
2021/06/20 07:21:45;;;;;;;6.45;3.42;;;;;;;31.89;35.35;99991.00;5135436;27;20088;-71
2021/06/20 07:24:13;;;;;;;4.85;3.53;;;;;;;31.60;35.89;99984.44;5135950;27;20043;-71
2021/06/20 07:26:41;;;;;;;6.47;3.33;;;;;;;31.82;36.72;99993.88;5135823;27;20051;-71
2021/06/20 07:29:11;;;;;;;6.50;3.35;;;;;;;31.94;36.21;99982.84;5135551;27;20047;-73
2021/06/20 07:31:39;;;;;;;5.90;3.42;;;;;;;31.96;35.17;99983.47;5135981;27;20384;-73
2021/06/20 07:34:07;;;;;;;6.10;3.10;;;;;;;31.26;36.49;99991.50;5135316;27;20487;-73
2021/06/20 07:36:36;;;;;;;4.38;3.20;;;;;;;31.22;36.76;99982.88;5135517;27;20465;-73
2021/06/20 07:39:05;;;;;;;5.70;3.22;;;;;;;31.22;37.04;99988.41;5135266;27;20047;-74
2021/06/20 07:41:33;;;;;;;4.88;3.30;;;;;;;31.65;36.30;99984.56;5135459;27;20039;-77
2021/06/20 07:44:04;;;;;;;5.10;3.13;;;;;;;31.59;36.33;99977.25;5135341;27;20067;-71
2021/06/20 07:46:33;;;;;;;4.75;3.20;;;;;;;31.50;36.41;99971.25;5135250;27;20039;-71
2021/06/20 07:49:03;;;;;;;4.32;3.22;;;;;;;31.41;36.55;99971.81;5134105;27;20051;-75
2021/06/20 07:51:31;;;;;;;6.70;3.35;;;;;;;31.39;36.85;99968.47;5135156;27;20472;-73
2021/06/20 07:53:59;;;;;;;4.72;2.90;;;;;;;31.60;35.64;99965.16;5135150;27;20039;-74
2021/06/20 07:56:29;;;;;;;4.63;3.15;;;;;;;31.51;36.14;99959.13;5134607;27;20078;-71
2021/06/20 07:58:58;;;;;;;7.80;3.15;;;;;;;31.77;35.87;99959.81;5133261;27;20066;-72
2021/06/20 08:01:26;;;;;;;6.55;2.92;;;;;;;31.73;35.94;99961.31;5135233;27;20039;-73
2021/06/20 08:03:56;;;;;;;6.18;2.90;;;;;;;31.61;36.28;99950.28;5134640;27;20043;-71
2021/06/20 08:06:24;;;;;;;4.15;2.95;;;;;;;31.23;36.26;99954.25;5135170;27;20050;-73
2021/06/20 08:08:55;;;;;;;3.67;2.72;;;;;;;30.60;37.32;99948.28;5134586;27;20035;-76
2021/06/20 08:11:25;;;;;;;4.75;3.00;;;;;;;30.75;37.74;99946.84;5135054;27;20466;-72
2021/06/20 08:13:53;;;;;;;4.57;2.80;;;;;;;31.00;36.95;99937.63;5134664;27;20050;-73
2021/06/20 08:16:22;;;;;;;5.28;2.80;;;;;;;30.87;37.69;99944.13;5135134;27;20387;-71
2021/06/20 08:18:50;;;;;;;3.90;2.60;;;;;;;30.78;36.94;99935.34;5134928;27;20480;-73
2021/06/20 08:21:20;;;;;;;4.88;2.65;;;;;;;30.37;38.06;99946.19;5134501;27;20043;-72
2021/06/20 08:23:50;;;;;;;4.50;2.95;;;;;;;30.42;38.29;99946.38;5134713;27;20039;-72
2021/06/20 08:26:19;;;;;;;6.30;3.20;;;;;;;30.23;38.60;99942.78;5134486;27;20050;-74
2021/06/20 08:28:48;;;;;;;5.18;3.10;;;;;;;30.16;38.82;99947.50;5134735;27;20047;-73
2021/06/20 08:31:16;;;;;;;7.45;3.10;;;;;;;30.07;38.18;99944.19;5134321;27;20047;-69
2021/06/20 08:33:44;;;;;;;4.30;2.83;;;;;;;30.30;38.55;99946.25;5134689;27;20050;-75
2021/06/20 08:36:15;;;;;;;4.70;3.05;;;;;;;30.56;37.62;99942.38;5134369;27;20043;-71
2021/06/20 08:38:45;;;;;;;4.80;2.83;;;;;;;30.66;36.84;99942.72;5133934;27;20456;-74
2021/06/20 08:41:14;;;;;;;5.75;2.80;;;;;;;30.88;36.75;99928.44;5134042;27;20050;-73
2021/06/20 08:43:43;;;;;;;4.30;3.00;;;;;;;30.89;36.52;99927.41;5134317;27;20096;-72
2021/06/20 08:46:13;;;;;;;5.93;2.90;;;;;;;30.73;36.63;99928.88;5133356;27;20494;-75
2021/06/20 08:48:41;;;;;;;4.60;2.50;;;;;;;30.35;37.06;99923.59;5115104;27;20056;-71
2021/06/20 08:51:10;;;;;;;3.65;2.67;;;;;;;30.56;37.52;99928.63;5134219;27;20134;-73
2021/06/20 08:53:38;;;;;;;4.97;2.88;;;;;;;30.70;36.92;99926.59;5116144;27;20054;-72
2021/06/20 08:56:11;;;;;;;5.05;2.75;;;;;;;30.88;36.28;99931.19;5134314;27;20125;-72
2021/06/20 08:58:42;;;;;;;3.13;2.50;;;;;;;30.77;36.19;99925.41;5134425;27;20065;-74
2021/06/20 09:01:10;;;;;;;7.43;2.70;;;;;;;30.50;36.88;99918.56;5133563;27;20472;-73
2021/06/20 09:03:40;;;;;;;3.90;2.80;;;;;;;30.71;36.34;99912.59;5133930;27;20047;-73
2021/06/20 09:06:16;;;;;;;5.88;2.80;;;;;;;30.68;36.63;99914.94;5133951;27;20046;-77
2021/06/20 09:08:48;;;;;;;4.47;2.88;;;;;;;30.67;36.84;99911.34;5134290;27;20077;-76
2021/06/20 09:11:27;;;;;;;5.65;2.83;;;;;;;30.83;36.49;99909.06;5133736;27;20841;-80
2021/06/20 09:14:04;;;;;;;5.10;2.80;;;;;;;30.78;36.33;99904.22;5141756;28;20047;-75
2021/06/20 09:16:33;;;;;;;3.83;2.70;;;;;;;31.03;35.97;99906.84;5135840;28;20043;-75
2021/06/20 09:19:03;;;;;;;3.65;2.50;;;;;;;30.92;36.04;99908.50;5136813;28;20046;-75
2021/06/20 09:21:32;;;;;;;5.50;2.75;;;;;;;31.08;35.85;99912.50;5116044;28;20051;-71
2021/06/20 09:24:03;;;;;;;5.53;3.10;;;;;;;31.42;34.89;99912.88;5133986;28;20043;-66
2021/06/20 09:26:38;;;;;;;4.53;2.85;;;;;;;31.45;34.94;99913.22;5133855;28;20065;-73
2021/06/20 09:29:07;;;;;;;7.22;2.95;;;;;;;31.37;35.14;99910.00;5133687;28;20056;-71
2021/06/20 09:31:53;;;;;;;5.78;2.50;;;;;;;31.23;35.03;99912.94;5133881;28;20130;-67
2021/06/20 09:34:22;;;;;;;7.18;2.80;;;;;;;31.27;35.25;99916.06;5133225;28;20036;-68
2021/06/20 09:37:00;;;;;;;5.25;3.00;;;;;;;30.68;36.05;99918.53;5133820;28;20035;-66
2021/06/20 09:39:30;;;;;;;4.57;2.55;;;;;;;30.40;36.19;99904.47;5134157;28;20501;-75
2021/06/20 09:42:01;;;;;;;4.82;3.05;;;;;;;30.11;36.90;99897.81;5133509;28;20130;-73
2021/06/20 09:44:37;;;;;;;6.30;2.93;;;;;;;30.03;37.13;99909.94;5133958;28;20039;-76
2021/06/20 09:47:06;;;;;;;4.07;2.92;;;;;;;30.28;36.81;99915.41;5130009;28;20042;-74
2021/06/20 09:49:38;;;;;;;5.20;3.00;;;;;;;29.99;37.31;99903.19;5131382;28;20067;-83
2021/06/20 09:52:07;;;;;;;5.20;3.05;;;;;;;30.16;37.39;99898.81;5137563;27;20548;-87
2021/06/20 09:54:38;;;;;;;4.70;2.92;;;;;;;30.52;35.90;99907.31;5136890;27;20043;-81
2021/06/20 09:57:17;;;;;;;6.63;3.25;;;;;;;30.73;36.11;99899.44;5136652;27;20059;-76
2021/06/20 09:59:55;;;;;;;6.20;3.20;;;;;;;31.17;35.29;99900.06;5137319;27;20035;-69
2021/06/20 10:02:26;;;;;;;5.63;3.47;;;;;;;31.01;35.57;99911.75;5136428;27;20039;-76
2021/06/20 10:04:58;;;;;;;4.25;2.80;;;;;;;30.77;35.64;99908.88;5137283;27;20046;-72
2021/06/20 10:07:28;;;;;;;6.43;2.75;;;;;;;30.92;35.26;99919.50;5136999;27;20035;-74
2021/06/20 10:09:59;;;;;;;5.18;2.97;;;;;;;30.66;36.55;99903.34;5137176;27;20047;-74
2021/06/20 10:12:29;;;;;;;5.85;3.00;;;;;;;30.66;36.09;99906.09;5136861;27;20051;-71
2021/06/20 10:14:59;;;;;;;4.32;2.90;;;;;;;30.97;35.31;99894.00;5137077;27;20054;-69
2021/06/20 10:17:31;;;;;;;7.90;3.33;;;;;;;31.04;35.32;99883.75;5127329;27;20082;-74
2021/06/20 10:20:02;;;;;;;4.80;2.80;;;;;;;31.24;35.43;99891.72;5136277;27;20035;-78
2021/06/20 10:22:38;;;;;;;6.05;3.05;;;;;;;31.30;34.98;99894.41;5136752;27;20047;-76
2021/06/20 10:25:09;;;;;;;4.43;3.08;;;;;;;31.07;35.36;99894.28;5136661;27;20050;-76
2021/06/20 10:27:44;;;;;;;5.38;3.05;;;;;;;31.20;34.88;99899.63;5136569;27;20043;-75
2021/06/20 10:30:17;;;;;;;4.35;2.90;;;;;;;31.19;35.09;99886.91;5136288;27;20488;-73
2021/06/20 10:32:48;;;;;;;5.13;3.15;;;;;;;31.25;35.26;99885.16;5136552;27;20092;-72
2021/06/20 10:35:19;;;;;;;3.95;3.10;;;;;;;31.31;35.44;99879.53;5117624;27;20545;-72
2021/06/20 10:37:50;;;;;;;4.57;2.58;;;;;;;30.94;36.52;99873.28;5136235;27;20042;-76
2021/06/20 10:40:24;;;;;;;4.05;2.60;;;;;;;30.82;36.12;99869.66;5136457;27;20419;-70
2021/06/20 10:42:55;;;;;;;6.40;2.80;;;;;;;30.89;35.76;99873.16;5136646;27;20068;-74
2021/06/20 10:45:29;;;;;;;5.28;3.05;;;;;;;30.73;35.68;99880.16;5136039;27;20047;-72
2021/06/20 10:47:59;;;;;;;5.35;3.20;;;;;;;30.63;35.80;99870.75;5135650;27;20479;-78
2021/06/20 10:50:38;;;;;;;5.22;3.30;;;;;;;31.02;35.79;99870.22;5135969;27;20039;-77
2021/06/20 10:53:07;;;;;;;4.95;2.97;;;;;;;31.32;35.41;99869.34;5136266;27;20112;-74
2021/06/20 10:55:45;;;;;;;5.70;3.33;;;;;;;31.47;35.00;99866.16;5136219;27;20043;-71
2021/06/20 10:58:25;;;;;;;4.82;2.97;;;;;;;31.47;35.30;99866.16;5135304;27;20134;-73
2021/06/20 11:01:08;;;;;;;5.90;3.28;;;;;;;31.59;34.75;99853.22;5136146;27;20067;-73
2021/06/20 11:03:38;;;;;;;4.18;2.70;;;;;;;31.48;34.79;99851.28;5116450;27;20069;-76
2021/06/20 11:06:14;;;;;;;4.57;3.28;;;;;;;31.19;35.47;99859.38;5135875;27;20035;-71
2021/06/20 11:08:54;;;;;;;5.50;3.17;;;;;;;31.37;35.20;99844.69;5135750;27;20066;-73
2021/06/20 11:11:25;;;;;;;6.60;3.13;;;;;;;31.24;35.61;99837.47;5134581;27;20158;-78
2021/06/20 11:14:08;;;;;;;4.95;3.15;;;;;;;30.82;36.02;99842.13;5129986;27;20515;-76
2021/06/20 11:16:38;;;;;;;4.82;2.97;;;;;;;30.81;36.18;99847.88;5121935;27;20038;-79
2021/06/20 11:19:11;;;;;;;4.47;3.40;;;;;;;31.11;35.62;99839.59;5135556;27;20476;-77
2021/06/20 11:21:42;;;;;;;4.73;3.20;;;;;;;31.08;35.48;99835.41;5135524;27;20035;-73
2021/06/20 11:24:12;;;;;;;6.07;3.00;;;;;;;31.18;35.63;99835.66;5116179;27;20295;-71
2021/06/20 11:26:52;;;;;;;4.93;3.38;;;;;;;31.31;35.34;99834.63;5135449;27;20092;-74
2021/06/20 11:29:21;;;;;;;6.05;3.42;;;;;;;31.26;35.28;99827.03;5135227;27;20118;-74
2021/06/20 11:31:52;;;;;;;4.22;3.17;;;;;;;31.49;35.29;99825.41;5135171;27;20428;-75
2021/06/20 11:34:21;;;;;;;6.20;3.30;;;;;;;31.72;34.26;99822.63;5135008;27;20084;-74
2021/06/20 11:36:49;;;;;;;5.50;3.55;;;;;;;31.89;34.56;99825.53;5135001;27;20039;-72
2021/06/20 11:39:20;;;;;;;5.43;3.58;;;;;;;32.03;33.98;99809.56;5134590;27;20046;-69
2021/06/20 11:41:51;;;;;;;5.18;3.28;;;;;;;32.22;34.14;99819.34;5134461;27;20050;-73
2021/06/20 11:44:21;;;;;;;8.52;3.55;;;;;;;32.23;33.66;99815.50;5134479;27;20042;-77